MST,Max TemperatureF,Mean TemperatureF,Min TemperatureF,Max Dew PointF,MeanDew PointF,Min DewpointF,Max Humidity, Mean Humidity, Min Humidity, Max Sea Level PressureIn, Mean Sea Level PressureIn, Min Sea Level PressureIn, Max VisibilityMiles, Mean VisibilityMiles, Min VisibilityMiles, Max Wind SpeedMPH, Mean Wind SpeedMPH, Max Gust SpeedMPH,PrecipitationIn, CloudCover, Events, WindDirDegrees
2013-5-1,75,65,53,28,3,-13,22,9,4,30.30,29.98,29.62,10,10,10,18,10,29,0.00,0,,318
2013-5-2,64,55,46,15,8,2,27,15,4,30.47,30.36,30.26,10,10,10,15,10,24,0.00,0,,35
2013-5-3,75,60,45,10,6,-1,22,12,4,30.25,30.01,29.79,10,10,9,10,2,,0.00,0,,71
2013-5-4,84,67,50,9,6,0,18,10,4,29.78,29.71,29.57,10,10,10,8,3,,0.00,0,,357
2013-5-5,,,,,,,,,,,,,,,,,,,,,,
2013-5-6,73,66,59,39,32,27,44,27,12,29.90,29.80,29.75,10,10,10,15,6,25,0.00,3,Rain-Thunderstorm,222
2013-5-7,69,58,46,47,39,33,83,51,20,30.00,29.86,29.73,10,9,2,28,6,38,0.12,5,Rain-Thunderstorm,199
2013-5-8,69,58,46,44,39,33,86,52,20,30.00,29.93,29.89,10,10,10,9,3,,0.04,3,Rain,27
2013-5-9,66,59,52,44,40,37,64,47,25,30.11,29.95,29.91,10,10,10,17,2,25,0.00,3,,339
2013-5-10,79,64,50,44,39,30,74,39,10,30.20,30.05,29.97,10,10,10,16,3,24,0.00,1,,58
2013-5-11,82,68,55,39,31,22,53,28,6,30.18,30.11,30.06,10,10,10,13,3,21,0.00,0,,295
2013-5-12,87,72,57,32,26,22,30,17,4,30.30,30.06,29.94,10,10,10,9,3,,0.00,0,,185
2013-5-13,90,75,60,29,24,18,26,15,4,30.19,29.97,29.84,10,10,10,12,2,,0.00,0,,20
2013-5-14,95,79,63,27,24,20,24,13,4,29.86,29.77,29.67,10,10,10,12,4,22,0.00,0,,230
2013-5-15,89,78,66,30,20,2,24,12,4,29.78,29.71,29.65,10,10,10,15,6,30,0.00,0,,223
2013-5-16,90,76,62,28,21,15,25,12,4,29.90,29.70,29.57,10,10,10,10,5,22,0.00,0,,223
2013-5-17,80,73,64,32,25,18,27,16,6,29.90,29.71,29.65,10,10,10,16,9,26,0.00,1,,205
2013-5-18,78,68,57,35,30,26,36,24,10,29.95,29.81,29.75,10,10,10,16,4,25,0.00,2,,299
2013-5-19,75,65,55,39,32,25,53,29,13,30.00,29.85,29.73,10,10,9,16,7,33,0.00,4,Rain-Thunderstorm,305
2013-5-20,77,66,54,34,29,24,42,26,7,30.00,29.90,29.83,10,10,10,13,7,20,0.00,1,,303
2013-5-21,84,69,54,33,27,18,42,21,4,29.92,29.80,29.65,10,10,10,9,3,,0.00,0,,297
2013-5-22,91,76,60,29,19,11,23,11,4,29.65,29.57,29.47,10,10,10,17,8,31,0.00,0,,215
2013-5-23,89,78,66,28,17,9,21,11,4,29.71,29.60,29.54,10,10,10,18,11,30,0.00,0,,198
2013-5-24,87,74,61,14,9,5,14,8,4,29.86,29.77,29.69,10,10,10,12,6,36,0.00,0,,205
2013-5-25,90,76,61,24,14,6,18,9,4,29.83,29.75,29.67,10,10,10,14,6,26,0.00,0,,201
2013-5-26,88,74,61,20,15,11,18,10,4,29.83,29.75,29.67,10,10,10,13,5,18,0.00,0,,209
2013-5-27,87,74,62,21,17,12,16,10,4,29.79,29.69,29.57,10,10,10,12,5,18,0.00,0,,281
2013-5-28,84,74,63,35,27,22,31,17,6,29.65,29.54,29.42,10,10,10,16,6,33,0.00,2,,236
2013-5-29,82,70,57,32,28,21,37,21,6,29.71,29.63,29.53,10,10,10,15,6,26,0.00,0,,285
2013-5-30,88,74,59,29,22,15,29,15,4,29.75,29.67,29.60,10,10,10,17,5,34,0.00,0,,273
2013-5-31,88,77,66,26,19,9,21,11,4,29.91,29.80,29.68,10,10,10,12,5,20,0.00,0,,350